Terminal Aerodrome Forecast
Issued by NWS

Home | Current Version | Previous Version | Text Only | Print | Product List | Glossary On
Versions: 1 2 3 4 5 6 7 8 9 10 11 12 13 14 15 16 17 18 19 20 21 22 23 24 25 26 27 28 29 30 31 32 33 34
480
FTUS42 KCAE 250234 AAA
TAFDNL
TAF AMD
KDNL 250234Z 2503/2524 VRB03KT P6SM VCSH SCT050 BKN080
      TEMPO 2504/2507 4SM SHRA BR SCT030 OVC040
     FM250900 VRB03KT 4SM BR OVC025
     FM251400 VRB04KT P6SM SCT040 BKN100=

USA.gov is the U.S. government's official web portal to all federal, state and local government web resources and services.